Time;durP1;ratioP1;P1;durP2;ratioP2;P2;SDS_P1;SDS_P2;PMS_P1;PMS_P2;Temp;Humidity;BMP_temperature;BMP_pressure;BME280_temperature;BME280_humidity;BME280_pressure;Samples;Min_cycle;Max_cycle;Signal;HPM_P1;HPM_P2
2021/10/03 00:01:42;;;;;;;45.10;40.67;;;12.80;98.60;;;;;;5076314;28;20501;-64
2021/10/03 00:04:09;;;;;;;5.65;3.10;;;12.80;98.50;;;;;;5068123;28;20050;-68
2021/10/03 00:06:36;;;;;;;6.50;4.78;;;12.70;98.20;;;;;;5067125;28;20475;-64
2021/10/03 00:09:03;;;;;;;7.80;6.78;;;12.70;98.10;;;;;;5073869;28;20172;-65
2021/10/03 00:11:30;;;;;;;8.75;5.60;;;12.70;97.80;;;;;;5076458;28;20162;-72
2021/10/03 00:13:57;;;;;;;7.38;2.28;;;12.70;98.00;;;;;;5090261;28;20040;-72
2021/10/03 00:16:24;;;;;;;3.47;1.90;;;12.70;98.10;;;;;;5072492;28;20087;-66
2021/10/03 00:18:52;;;;;;;1.77;1.00;;;12.70;97.80;;;;;;5073827;28;20056;-65
2021/10/03 00:21:37;;;;;;;2.80;1.10;;;12.70;97.90;;;;;;5075421;28;20101;-67
2021/10/03 00:24:04;;;;;;;3.47;1.08;;;12.60;97.60;;;;;;5049970;28;20412;-66
2021/10/03 00:26:32;;;;;;;4.80;1.10;;;12.60;98.20;;;;;;5059837;28;20067;-65
2021/10/03 00:28:59;;;;;;;2.30;1.10;;;12.60;97.80;;;;;;5065970;28;20551;-66
2021/10/03 00:31:26;;;;;;;7.43;6.47;;;12.60;97.50;;;;;;5059937;28;20146;-74
2021/10/03 00:33:53;;;;;;;36.83;32.33;;;12.60;98.20;;;;;;5091281;28;20368;-64
2021/10/03 00:36:20;;;;;;;18.80;9.73;;;12.60;97.80;;;;;;5072730;28;20115;-66
2021/10/03 00:38:47;;;;;;;7.68;4.97;;;12.60;97.20;;;;;;5059360;28;20136;-67
2021/10/03 00:41:14;;;;;;;3.95;1.35;;;12.60;97.10;;;;;;5093445;28;20079;-67
2021/10/03 00:43:41;;;;;;;2.08;0.90;;;12.50;97.50;;;;;;5074001;28;20135;-68
2021/10/03 00:46:08;;;;;;;2.80;1.00;;;12.50;97.30;;;;;;5074035;28;20056;-67
2021/10/03 00:48:35;;;;;;;2.25;1.02;;;12.40;97.00;;;;;;5087146;28;20072;-66
2021/10/03 00:51:02;;;;;;;2.92;1.15;;;12.40;97.50;;;;;;5073189;28;20139;-72
2021/10/03 00:53:29;;;;;;;4.57;1.40;;;12.40;97.80;;;;;;5073250;28;20135;-70
2021/10/03 00:55:57;;;;;;;5.32;3.03;;;12.40;98.70;;;;;;5073472;28;20097;-69
2021/10/03 00:58:23;;;;;;;95.82;85.97;;;12.40;99.00;;;;;;5069293;28;20053;-68
2021/10/03 01:00:50;;;;;;;22.85;14.57;;;12.50;97.70;;;;;;5052187;28;20406;-70
2021/10/03 01:03:18;;;;;;;6.63;5.00;;;12.50;97.30;;;;;;5055012;28;20063;-71
2021/10/03 01:05:45;;;;;;;2.83;1.50;;;12.40;97.20;;;;;;5071748;28;20044;-67
2021/10/03 01:08:11;;;;;;;4.38;1.35;;;12.40;97.30;;;;;;5069944;28;20045;-67
2021/10/03 01:10:38;;;;;;;6.38;1.63;;;12.30;97.00;;;;;;5054693;28;20052;-72
2021/10/03 01:13:09;;;;;;;1.70;1.08;;;12.30;97.10;;;;;;5071573;28;20151;-67
2021/10/03 01:15:39;;;;;;;6.18;1.98;;;12.30;97.30;;;;;;5071242;28;20071;-69
2021/10/03 01:18:07;;;;;;;1.52;0.90;;;12.30;98.00;;;;;;5062919;28;20050;-66
2021/10/03 01:20:34;;;;;;;5.03;1.13;;;12.30;97.60;;;;;;5054530;28;20048;-69
2021/10/03 01:23:03;;;;;;;3.95;1.25;;;12.20;98.00;;;;;;5038161;28;20488;-67
2021/10/03 01:25:34;;;;;;;5.13;1.38;;;12.20;97.10;;;;;;5071652;28;20070;-68
2021/10/03 01:28:01;;;;;;;4.72;1.00;;;12.20;96.90;;;;;;5037854;28;20678;-67
2021/10/03 01:30:28;;;;;;;3.97;1.38;;;12.20;97.40;;;;;;5072383;28;20078;-67
2021/10/03 01:32:55;;;;;;;4.20;1.33;;;12.20;96.90;;;;;;5055034;28;20183;-67
2021/10/03 01:35:25;;;;;;;5.30;1.13;;;12.20;97.10;;;;;;5071913;28;20080;-67
2021/10/03 01:37:52;;;;;;;8.18;1.73;;;12.20;96.70;;;;;;5072126;28;20051;-66
2021/10/03 01:40:20;;;;;;;3.90;1.17;;;12.10;97.40;;;;;;5072501;28;20051;-67
2021/10/03 01:42:47;;;;;;;1.63;0.93;;;12.10;96.80;;;;;;5053827;28;20048;-68
2021/10/03 01:45:15;;;;;;;3.92;1.33;;;12.10;96.90;;;;;;5071608;28;20049;-67
2021/10/03 01:48:01;;;;;;;4.05;1.30;;;12.10;97.90;;;;;;5070750;28;20048;-67
2021/10/03 01:50:29;;;;;;;4.88;0.88;;;12.00;96.90;;;;;;5051928;28;20686;-69
2021/10/03 01:52:56;;;;;;;2.40;1.20;;;12.00;97.10;;;;;;5064386;28;20052;-67
2021/10/03 01:55:23;;;;;;;4.97;1.00;;;12.00;97.00;;;;;;5054551;28;20099;-68
2021/10/03 01:57:50;;;;;;;2.35;0.85;;;12.00;97.00;;;;;;5077214;28;20040;-67
2021/10/03 02:00:17;;;;;;;4.65;1.10;;;12.00;97.10;;;;;;5092111;28;20062;-67
2021/10/03 02:02:45;;;;;;;5.07;1.50;;;12.00;98.10;;;;;;5091915;28;20052;-67
2021/10/03 02:05:12;;;;;;;2.60;1.30;;;11.90;98.00;;;;;;5092287;28;20054;-67
2021/10/03 02:07:39;;;;;;;4.82;1.13;;;11.90;97.20;;;;;;5073922;28;20063;-67
2021/10/03 02:10:06;;;;;;;2.05;1.30;;;11.90;97.60;;;;;;5080742;28;20044;-66
2021/10/03 02:12:33;;;;;;;4.65;1.17;;;11.90;97.80;;;;;;5070264;28;20048;-66
2021/10/03 02:15:00;;;;;;;9.02;1.40;;;11.90;98.20;;;;;;5071229;28;20072;-68
2021/10/03 02:17:30;;;;;;;3.53;1.10;;;11.90;98.30;;;;;;5070346;28;20048;-66
2021/10/03 02:19:58;;;;;;;3.75;1.10;;;11.90;98.10;;;;;;5070362;28;20107;-66
2021/10/03 02:22:25;;;;;;;2.33;1.33;;;11.90;97.40;;;;;;5053633;28;20052;-67
2021/10/03 02:24:56;;;;;;;8.40;1.90;;;11.80;98.30;;;;;;5053604;28;20139;-66
2021/10/03 02:27:26;;;;;;;6.25;1.30;;;11.80;97.90;;;;;;5054012;28;20044;-67
2021/10/03 02:29:53;;;;;;;4.45;1.23;;;11.80;98.60;;;;;;5059614;28;20047;-66
2021/10/03 02:32:20;;;;;;;3.28;1.05;;;11.80;97.90;;;;;;5057262;28;20404;-68
2021/10/03 02:34:47;;;;;;;2.03;0.82;;;11.80;97.80;;;;;;5038673;28;20124;-66
2021/10/03 02:37:14;;;;;;;4.88;1.10;;;11.80;97.90;;;;;;5065928;28;20123;-67
2021/10/03 02:39:41;;;;;;;3.63;1.20;;;11.80;98.20;;;;;;5086170;28;20063;-67
2021/10/03 02:42:08;;;;;;;2.00;1.05;;;11.80;98.30;;;;;;5069737;28;20516;-67
2021/10/03 02:44:35;;;;;;;3.95;1.20;;;11.80;98.40;;;;;;5061853;28;20053;-67
2021/10/03 02:47:02;;;;;;;6.63;1.73;;;11.80;98.50;;;;;;5069835;28;20040;-67
2021/10/03 02:49:30;;;;;;;4.72;1.00;;;11.70;98.20;;;;;;5053370;28;20056;-67
2021/10/03 02:51:58;;;;;;;10.13;1.38;;;11.70;97.60;;;;;;5070949;28;20062;-67
2021/10/03 02:54:25;;;;;;;7.82;1.27;;;11.70;97.80;;;;;;5053366;28;20052;-66
2021/10/03 02:56:52;;;;;;;3.80;1.00;;;11.70;97.70;;;;;;5071294;28;20059;-66
2021/10/03 02:59:19;;;;;;;2.17;0.90;;;11.70;98.10;;;;;;5071106;28;20044;-66
2021/10/03 03:01:46;;;;;;;3.67;1.73;;;11.70;98.40;;;;;;5053133;28;20045;-67
2021/10/03 03:04:13;;;;;;;6.05;2.13;;;11.70;98.50;;;;;;5085138;28;20090;-66
2021/10/03 03:06:40;;;;;;;3.05;1.00;;;11.60;98.40;;;;;;5089470;28;20130;-68
2021/10/03 03:09:07;;;;;;;2.17;1.13;;;11.70;98.60;;;;;;5090212;28;20040;-67
2021/10/03 03:11:34;;;;;;;7.35;1.33;;;11.70;98.10;;;;;;5054552;28;20478;-67
2021/10/03 03:14:01;;;;;;;8.77;1.65;;;11.60;98.10;;;;;;5070352;28;20400;-67
2021/10/03 03:16:29;;;;;;;6.20;0.98;;;11.60;98.60;;;;;;5068739;28;20489;-66
2021/10/03 03:18:56;;;;;;;2.20;1.10;;;11.70;98.10;;;;;;5070431;28;20089;-67
2021/10/03 03:21:23;;;;;;;4.43;1.27;;;11.70;97.90;;;;;;5070260;28;20080;-67
2021/10/03 03:23:50;;;;;;;4.75;1.27;;;11.60;98.40;;;;;;5057950;28;20488;-67
2021/10/03 03:26:17;;;;;;;3.72;1.40;;;11.60;98.20;;;;;;5062953;28;20051;-67
2021/10/03 03:28:44;;;;;;;6.07;1.25;;;11.60;98.40;;;;;;5089674;28;20462;-67
2021/10/03 03:31:11;;;;;;;4.18;1.35;;;11.60;97.50;;;;;;5088329;28;20546;-67
2021/10/03 03:33:38;;;;;;;7.32;1.52;;;11.60;97.70;;;;;;5069846;28;20044;-67
2021/10/03 03:36:05;;;;;;;4.43;1.20;;;11.60;98.00;;;;;;5089175;28;20056;-67
2021/10/03 03:38:35;;;;;;;5.50;1.20;;;11.60;97.70;;;;;;5065967;28;20055;-67
2021/10/03 03:41:04;;;;;;;3.25;1.52;;;11.50;97.10;;;;;;5089114;28;20495;-67
2021/10/03 03:43:31;;;;;;;4.50;1.20;;;11.60;98.20;;;;;;5071948;28;20044;-67
2021/10/03 03:45:58;;;;;;;3.38;0.98;;;11.50;98.30;;;;;;5075240;28;20427;-67
2021/10/03 03:48:25;;;;;;;2.40;0.90;;;11.50;98.20;;;;;;5061331;28;20049;-68
2021/10/03 03:50:52;;;;;;;2.30;1.05;;;11.50;98.30;;;;;;5064627;28;20132;-66
2021/10/03 03:53:19;;;;;;;3.17;1.13;;;11.50;98.10;;;;;;5070691;28;20058;-66
2021/10/03 03:55:46;;;;;;;4.20;1.25;;;11.50;98.40;;;;;;5057662;28;20071;-67
2021/10/03 03:58:13;;;;;;;7.50;1.20;;;11.50;97.50;;;;;;5088569;28;20495;-66
2021/10/03 04:00:40;;;;;;;5.22;1.17;;;11.50;97.60;;;;;;5085680;28;20063;-68
2021/10/03 04:03:07;;;;;;;7.45;1.50;;;11.50;97.60;;;;;;5071584;28;20070;-67
2021/10/03 04:05:33;;;;;;;2.20;1.13;;;11.50;97.10;;;;;;5067641;28;20135;-66
2021/10/03 04:08:00;;;;;;;7.88;1.35;;;11.50;96.90;;;;;;5089246;28;20084;-66
2021/10/03 04:10:27;;;;;;;3.55;0.98;;;11.50;97.20;;;;;;5088254;28;20050;-67
2021/10/03 04:12:54;;;;;;;3.67;1.20;;;11.50;97.50;;;;;;5060687;28;20050;-67
2021/10/03 04:15:22;;;;;;;2.88;1.20;;;11.50;98.10;;;;;;5073865;28;20075;-66
2021/10/03 04:17:48;;;;;;;6.30;1.67;;;11.40;97.80;;;;;;5068905;28;20059;-66
2021/10/03 04:20:15;;;;;;;6.97;1.20;;;11.40;97.60;;;;;;5082964;28;20054;-65
2021/10/03 04:22:42;;;;;;;9.48;1.23;;;11.50;97.40;;;;;;5062731;28;20128;-65
2021/10/03 04:25:10;;;;;;;4.00;1.25;;;11.40;97.50;;;;;;5089053;28;20051;-66
2021/10/03 04:27:37;;;;;;;4.40;1.35;;;11.40;97.50;;;;;;5060359;28;20046;-66
2021/10/03 04:30:04;;;;;;;6.15;1.30;;;11.40;98.00;;;;;;5070534;28;20043;-67
2021/10/03 04:32:31;;;;;;;3.92;1.17;;;11.40;97.70;;;;;;5054399;28;20496;-66
2021/10/03 04:34:58;;;;;;;3.97;1.05;;;11.30;97.60;;;;;;5069932;28;20063;-66
2021/10/03 04:37:25;;;;;;;3.47;1.20;;;11.30;97.90;;;;;;5089761;28;20062;-66
2021/10/03 04:39:52;;;;;;;4.00;1.40;;;11.30;97.70;;;;;;5087588;28;20044;-66
2021/10/03 04:42:20;;;;;;;3.67;1.40;;;11.30;98.10;;;;;;5088427;28;20044;-68
2021/10/03 04:44:48;;;;;;;4.75;1.25;;;11.20;98.00;;;;;;5060135;28;20055;-66
2021/10/03 04:47:14;;;;;;;4.55;1.30;;;11.20;97.90;;;;;;5078771;28;20054;-67
2021/10/03 04:49:41;;;;;;;3.22;1.00;;;11.20;97.80;;;;;;5078656;28;20102;-68
2021/10/03 04:52:08;;;;;;;4.32;1.13;;;11.20;98.10;;;;;;5073753;28;20136;-67
2021/10/03 04:54:35;;;;;;;4.03;1.50;;;11.20;98.30;;;;;;5092879;28;20424;-67
2021/10/03 04:57:03;;;;;;;6.38;1.20;;;11.20;98.20;;;;;;5092783;28;20125;-67
2021/10/03 04:59:30;;;;;;;5.15;1.20;;;11.20;98.20;;;;;;5066185;28;20070;-67
2021/10/03 05:01:58;;;;;;;1.65;0.98;;;11.10;98.30;;;;;;5074124;28;20048;-67
2021/10/03 05:04:25;;;;;;;4.65;1.30;;;11.10;97.90;;;;;;5068769;28;20060;-67
2021/10/03 05:06:52;;;;;;;4.28;1.15;;;11.10;97.90;;;;;;5092446;28;20040;-66
2021/10/03 05:09:19;;;;;;;3.78;1.23;;;11.10;97.80;;;;;;5064963;28;20056;-68
2021/10/03 05:11:46;;;;;;;5.20;0.95;;;11.10;97.70;;;;;;5075248;28;20514;-67
2021/10/03 05:14:13;;;;;;;5.75;1.90;;;11.10;97.90;;;;;;5049163;28;20085;-67
2021/10/03 05:16:40;;;;;;;6.43;1.38;;;11.10;97.90;;;;;;5089494;28;20048;-68
2021/10/03 05:19:07;;;;;;;3.10;1.10;;;11.10;98.10;;;;;;5061634;28;20044;-67
2021/10/03 05:21:34;;;;;;;3.10;1.00;;;11.10;98.60;;;;;;5073648;28;20052;-67
2021/10/03 05:24:02;;;;;;;5.15;1.10;;;11.10;98.10;;;;;;5059319;28;20047;-67
2021/10/03 05:26:29;;;;;;;3.25;0.95;;;11.00;98.00;;;;;;5039331;28;20056;-67
2021/10/03 05:28:56;;;;;;;2.55;1.00;;;11.00;98.50;;;;;;5072848;28;20092;-66
2021/10/03 05:31:26;;;;;;;5.47;1.30;;;11.00;98.30;;;;;;5092361;28;20450;-66
2021/10/03 05:33:53;;;;;;;4.10;1.27;;;11.00;98.10;;;;;;5073542;28;20047;-66
2021/10/03 05:36:20;;;;;;;3.38;1.30;;;11.00;98.20;;;;;;5091194;28;20040;-67
2021/10/03 05:38:47;;;;;;;3.60;0.98;;;11.00;98.50;;;;;;5093025;28;20059;-66
2021/10/03 05:41:14;;;;;;;4.30;1.02;;;11.00;98.20;;;;;;5058058;28;20050;-66
2021/10/03 05:43:41;;;;;;;5.30;1.45;;;11.00;98.60;;;;;;5071812;28;20058;-66
2021/10/03 05:46:08;;;;;;;3.88;1.05;;;11.00;98.50;;;;;;5066482;28;20048;-66
2021/10/03 05:48:35;;;;;;;3.50;1.05;;;10.90;98.50;;;;;;5070408;28;20525;-67
2021/10/03 05:51:02;;;;;;;5.43;1.20;;;10.90;98.60;;;;;;5091691;28;20054;-67
2021/10/03 05:53:29;;;;;;;5.30;1.17;;;10.90;98.40;;;;;;5057884;28;20063;-66
2021/10/03 05:55:56;;;;;;;3.00;1.35;;;10.90;98.50;;;;;;5085464;28;20044;-67
2021/10/03 05:58:23;;;;;;;2.22;1.05;;;10.90;98.10;;;;;;5086704;28;20123;-67
2021/10/03 06:00:50;;;;;;;2.95;1.20;;;10.90;98.50;;;;;;5090090;28;20135;-67
2021/10/03 06:03:17;;;;;;;3.08;1.23;;;10.90;98.10;;;;;;5091600;28;20056;-67
2021/10/03 06:05:44;;;;;;;3.85;1.13;;;10.90;98.00;;;;;;5069399;28;20040;-67
2021/10/03 06:08:11;;;;;;;6.18;1.20;;;10.90;98.10;;;;;;5091896;28;20059;-67
2021/10/03 06:10:38;;;;;;;5.40;1.30;;;10.90;98.10;;;;;;5059522;28;20040;-66
2021/10/03 06:13:05;;;;;;;3.45;1.58;;;10.90;98.30;;;;;;5091234;28;20058;-67
2021/10/03 06:15:33;;;;;;;3.97;1.02;;;10.90;98.30;;;;;;5059617;28;20052;-67
2021/10/03 06:18:00;;;;;;;3.30;1.20;;;10.90;98.60;;;;;;5072129;28;20119;-68
2021/10/03 06:20:28;;;;;;;6.97;1.67;;;10.90;97.90;;;;;;5058455;28;20067;-66
2021/10/03 06:22:55;;;;;;;2.67;1.10;;;10.90;98.10;;;;;;5028276;28;20580;-67
2021/10/03 06:25:22;;;;;;;4.78;1.20;;;10.90;98.50;;;;;;5071947;28;20123;-67
2021/10/03 06:27:50;;;;;;;5.25;1.33;;;10.90;98.10;;;;;;5090827;28;20056;-66
2021/10/03 06:30:18;;;;;;;3.58;1.33;;;10.90;98.00;;;;;;5089751;28;20044;-67
2021/10/03 06:32:45;;;;;;;4.78;1.38;;;10.90;98.00;;;;;;5090608;28;20048;-66
2021/10/03 06:35:15;;;;;;;3.65;1.27;;;10.90;98.50;;;;;;5090744;28;20492;-65
2021/10/03 06:37:42;;;;;;;23.52;1.80;;;10.80;98.30;;;;;;5061680;28;20044;-66
2021/10/03 06:40:09;;;;;;;6.47;1.60;;;10.90;98.00;;;;;;5091354;28;20051;-65
2021/10/03 06:42:36;;;;;;;5.38;1.92;;;10.80;98.40;;;;;;5070584;28;20036;-66
2021/10/03 06:45:04;;;;;;;4.00;1.05;;;10.80;98.40;;;;;;5082558;28;20086;-66
2021/10/03 06:47:31;;;;;;;6.00;1.38;;;10.80;97.90;;;;;;5090475;28;20492;-66
2021/10/03 06:49:58;;;;;;;3.60;1.52;;;10.80;98.40;;;;;;5074629;28;20078;-66
2021/10/03 06:52:24;;;;;;;7.57;2.08;;;10.80;98.10;;;;;;5058634;28;20151;-66
2021/10/03 06:54:51;;;;;;;6.35;1.23;;;10.80;98.40;;;;;;5050109;28;20044;-66
2021/10/03 06:57:18;;;;;;;4.05;1.40;;;10.80;98.10;;;;;;5072111;28;20487;-67
2021/10/03 06:59:45;;;;;;;4.90;1.48;;;10.80;98.50;;;;;;5090541;28;20109;-65
2021/10/03 07:02:20;;;;;;;5.97;1.33;;;10.80;98.30;;;;;;5067877;28;20048;-66
2021/10/03 07:04:47;;;;;;;6.35;1.48;;;10.90;98.50;;;;;;5090307;28;20055;-65
2021/10/03 07:07:15;;;;;;;5.15;1.63;;;10.90;98.30;;;;;;5090135;28;20044;-66
2021/10/03 07:09:42;;;;;;;5.07;1.20;;;10.90;98.40;;;;;;5065020;28;20047;-66
2021/10/03 07:12:09;;;;;;;7.13;1.80;;;10.90;97.90;;;;;;5080518;28;20054;-66
2021/10/03 07:14:35;;;;;;;5.05;1.73;;;10.90;98.30;;;;;;5074204;28;20536;-67
2021/10/03 07:17:02;;;;;;;10.38;3.05;;;10.90;98.20;;;;;;5090760;28;20403;-66
2021/10/03 07:19:29;;;;;;;5.55;1.98;;;10.90;98.40;;;;;;5064699;28;20221;-67
2021/10/03 07:21:57;;;;;;;6.60;1.65;;;10.90;98.10;;;;;;5064036;28;20048;-67
2021/10/03 07:24:23;;;;;;;3.78;1.48;;;11.00;98.60;;;;;;5089244;28;20083;-67
2021/10/03 07:26:50;;;;;;;8.20;1.70;;;10.90;98.10;;;;;;5072716;28;20048;-66
2021/10/03 07:29:17;;;;;;;7.60;2.17;;;11.00;97.70;;;;;;5061096;28;20506;-68
2021/10/03 07:31:44;;;;;;;7.85;1.55;;;11.00;97.80;;;;;;5064487;28;20132;-67
2021/10/03 07:34:11;;;;;;;3.72;1.42;;;11.00;97.80;;;;;;5072205;28;20117;-67
2021/10/03 07:36:38;;;;;;;4.93;1.85;;;11.10;97.40;;;;;;5089671;28;20130;-67
2021/10/03 07:39:05;;;;;;;10.48;1.40;;;11.10;97.50;;;;;;5056547;28;20052;-66
2021/10/03 07:41:32;;;;;;;4.45;1.33;;;11.10;97.00;;;;;;5045384;28;20123;-67
2021/10/03 07:43:59;;;;;;;5.20;1.25;;;11.10;97.00;;;;;;5043433;28;20109;-67
2021/10/03 07:46:26;;;;;;;8.35;1.48;;;11.10;97.20;;;;;;5068635;28;20075;-67
2021/10/03 07:48:53;;;;;;;4.72;1.08;;;11.10;96.90;;;;;;5054945;28;20551;-67
2021/10/03 07:51:20;;;;;;;6.97;1.38;;;11.10;97.50;;;;;;5069758;28;20048;-67
2021/10/03 07:53:47;;;;;;;4.55;1.55;;;11.10;96.80;;;;;;5069684;28;20511;-67
2021/10/03 07:56:14;;;;;;;5.75;1.58;;;11.10;96.70;;;;;;5051078;28;20132;-67
2021/10/03 07:58:41;;;;;;;3.42;1.15;;;11.10;97.10;;;;;;5070629;28;20071;-67
2021/10/03 08:01:08;;;;;;;6.40;1.30;;;11.10;97.20;;;;;;5088646;28;20051;-67
2021/10/03 08:03:37;;;;;;;7.85;1.30;;;11.20;97.00;;;;;;5055569;28;20048;-67
2021/10/03 08:06:05;;;;;;;3.42;1.15;;;11.10;96.40;;;;;;5056894;28;20102;-67
2021/10/03 08:08:32;;;;;;;6.55;1.70;;;11.20;96.40;;;;;;5090563;28;20093;-67
2021/10/03 08:10:59;;;;;;;5.85;1.08;;;11.20;96.70;;;;;;5065107;28;20055;-67
2021/10/03 08:13:25;;;;;;;8.18;1.35;;;11.20;96.30;;;;;;5045091;28;20056;-67
2021/10/03 08:15:52;;;;;;;4.90;1.40;;;11.20;96.80;;;;;;5080323;28;20836;-66
2021/10/03 08:18:19;;;;;;;4.05;1.40;;;11.30;96.80;;;;;;5071977;28;20083;-67
2021/10/03 08:20:47;;;;;;;4.22;1.25;;;11.30;96.90;;;;;;5083831;28;20589;-66
2021/10/03 08:23:14;;;;;;;2.13;1.10;;;11.40;96.40;;;;;;5056485;28;20483;-67
2021/10/03 08:25:41;;;;;;;5.68;1.33;;;11.40;95.30;;;;;;5093460;28;20081;-67
2021/10/03 08:28:08;;;;;;;7.32;1.27;;;11.40;95.80;;;;;;5092917;28;20059;-66
2021/10/03 08:30:35;;;;;;;4.43;1.20;;;11.40;95.50;;;;;;5074151;28;20060;-67
2021/10/03 08:33:02;;;;;;;3.33;1.70;;;11.50;95.90;;;;;;5075751;28;20387;-67
2021/10/03 08:35:29;;;;;;;3.78;1.30;;;11.50;95.50;;;;;;5069820;28;20174;-66
2021/10/03 08:37:56;;;;;;;7.65;1.52;;;11.50;94.50;;;;;;5092830;28;20128;-65
2021/10/03 08:40:23;;;;;;;6.35;1.45;;;11.50;94.70;;;;;;5036443;28;20078;-65
2021/10/03 08:42:50;;;;;;;5.13;2.63;;;11.50;94.70;;;;;;5093555;28;20048;-66
2021/10/03 08:45:18;;;;;;;4.82;1.60;;;11.50;94.90;;;;;;5039970;28;20582;-67
2021/10/03 08:47:45;;;;;;;10.35;2.75;;;11.40;94.10;;;;;;5091645;28;20064;-67
2021/10/03 08:50:14;;;;;;;4.50;1.40;;;11.40;95.10;;;;;;5063974;28;20054;-66
2021/10/03 08:52:42;;;;;;;4.30;1.00;;;11.40;94.50;;;;;;5063778;28;20048;-66
2021/10/03 08:55:10;;;;;;;7.45;1.55;;;11.40;95.60;;;;;;5055076;28;20052;-66
2021/10/03 08:57:37;;;;;;;4.85;1.55;;;11.50;94.80;;;;;;5072645;28;20091;-66
2021/10/03 09:00:13;;;;;;;3.20;1.58;;;11.50;95.20;;;;;;5054366;28;20136;-66
2021/10/03 09:02:55;;;;;;;4.18;1.17;;;11.50;95.30;;;;;;5054776;28;20514;-66
2021/10/03 09:05:24;;;;;;;5.60;1.40;;;11.60;94.20;;;;;;5068552;28;20040;-66
2021/10/03 09:07:58;;;;;;;6.90;2.53;;;11.60;95.20;;;;;;5054864;28;20054;-67
2021/10/03 09:10:26;;;;;;;6.28;1.48;;;11.70;94.20;;;;;;5077391;28;20048;-66
2021/10/03 09:12:57;;;;;;;2.97;1.13;;;11.80;94.60;;;;;;5055482;28;20139;-66
2021/10/03 09:15:24;;;;;;;7.28;1.40;;;11.90;94.50;;;;;;5054297;28;20098;-66
2021/10/03 09:17:56;;;;;;;4.15;1.20;;;12.00;94.20;;;;;;5055136;28;20040;-66
2021/10/03 09:20:24;;;;;;;3.20;1.48;;;12.10;94.70;;;;;;5068129;28;20052;-66
2021/10/03 09:23:07;;;;;;;3.83;1.40;;;12.10;94.00;;;;;;5080796;28;20503;-66
2021/10/03 09:25:40;;;;;;;3.65;1.55;;;12.20;94.00;;;;;;5071995;28;20041;-66
2021/10/03 09:28:24;;;;;;;8.27;1.70;;;12.30;95.10;;;;;;5071569;28;20132;-66
2021/10/03 09:31:05;;;;;;;6.07;1.60;;;12.40;94.70;;;;;;5056457;28;20507;-66
2021/10/03 09:33:42;;;;;;;2.22;1.20;;;12.40;92.90;;;;;;5054742;28;20045;-67
2021/10/03 09:36:10;;;;;;;3.63;1.30;;;12.50;92.80;;;;;;5054424;28;20048;-66
2021/10/03 09:38:44;;;;;;;5.55;1.50;;;12.60;92.90;;;;;;5054858;28;20048;-69
2021/10/03 09:41:11;;;;;;;17.48;14.45;;;12.60;93.40;;;;;;5056621;28;20506;-66
2021/10/03 09:43:51;;;;;;;8.27;4.32;;;12.70;92.30;;;;;;5054151;28;20047;-68
2021/10/03 09:46:32;;;;;;;2.65;1.40;;;12.80;92.70;;;;;;5071360;28;20041;-68
2021/10/03 09:49:00;;;;;;;4.95;1.40;;;12.80;91.50;;;;;;5054894;28;20421;-71
2021/10/03 09:51:27;;;;;;;4.65;1.10;;;12.80;92.60;;;;;;5061329;28;20051;-70
2021/10/03 09:53:54;;;;;;;4.63;1.05;;;12.80;91.40;;;;;;5064310;28;20068;-69
2021/10/03 09:56:21;;;;;;;8.30;1.50;;;12.80;92.80;;;;;;5053247;28;20510;-67
2021/10/03 09:58:48;;;;;;;6.72;1.52;;;12.90;92.00;;;;;;5072452;28;20058;-67
2021/10/03 10:01:16;;;;;;;4.57;1.30;;;13.00;92.40;;;;;;5066944;28;20071;-68
2021/10/03 10:03:44;;;;;;;5.03;2.53;;;13.10;91.50;;;;;;5093109;28;20082;-68
2021/10/03 10:06:12;;;;;;;3.60;1.42;;;13.10;93.00;;;;;;5093178;28;20111;-68
2021/10/03 10:08:39;;;;;;;8.15;1.60;;;13.30;92.50;;;;;;5092101;28;20090;-67
2021/10/03 10:11:16;;;;;;;4.18;1.48;;;13.30;90.60;;;;;;5074597;28;20093;-68
2021/10/03 10:13:51;;;;;;;5.05;1.48;;;13.40;90.60;;;;;;5063010;28;20055;-68
2021/10/03 10:16:41;;;;;;;5.97;1.75;;;13.40;90.20;;;;;;5054350;28;20117;-68
2021/10/03 10:19:30;;;;;;;5.88;2.17;;;13.50;91.40;;;;;;5071051;28;20068;-68
2021/10/03 10:22:14;;;;;;;3.58;1.45;;;13.60;89.10;;;;;;5054137;28;20056;-67
2021/10/03 10:24:48;;;;;;;6.50;2.00;;;13.60;90.20;;;;;;5071848;28;20127;-67
2021/10/03 10:27:21;;;;;;;6.40;2.00;;;13.70;91.10;;;;;;5072215;28;20352;-67
2021/10/03 10:29:52;;;;;;;5.20;1.58;;;13.80;87.90;;;;;;5071446;28;20541;-67
2021/10/03 10:32:22;;;;;;;5.30;1.63;;;13.80;88.30;;;;;;5070360;28;20636;-67
2021/10/03 10:35:08;;;;;;;4.18;1.40;;;13.80;84.90;;;;;;5059999;28;20088;-67
2021/10/03 10:37:56;;;;;;;6.70;2.40;;;13.80;84.80;;;;;;5052042;28;20056;-67
2021/10/03 10:40:23;;;;;;;2.80;1.42;;;13.80;84.70;;;;;;5057173;28;20041;-68
2021/10/03 10:42:54;;;;;;;2.95;1.75;;;13.80;85.80;;;;;;5070144;28;20797;-67
2021/10/03 10:45:26;;;;;;;5.57;1.85;;;13.90;83.90;;;;;;5069581;28;20135;-68
2021/10/03 10:48:09;;;;;;;6.53;1.50;;;13.90;84.20;;;;;;5070903;28;20040;-67
2021/10/03 10:50:48;;;;;;;4.57;1.40;;;13.80;84.70;;;;;;5086625;28;20204;-68
2021/10/03 10:53:30;;;;;;;7.43;1.35;;;13.80;81.30;;;;;;5043091;28;20086;-68
2021/10/03 10:56:16;;;;;;;4.18;1.48;;;13.70;82.60;;;;;;5071216;28;20055;-68
2021/10/03 10:58:54;;;;;;;7.32;1.20;;;13.60;82.90;;;;;;5036460;28;20048;-68
2021/10/03 11:01:30;;;;;;;5.10;1.60;;;13.60;82.60;;;;;;5070690;28;20131;-68
2021/10/03 11:03:59;;;;;;;3.58;1.65;;;13.60;80.80;;;;;;5068699;28;20056;-67
2021/10/03 11:06:26;;;;;;;4.80;1.58;;;13.60;83.00;;;;;;5052862;28;20775;-67
2021/10/03 11:09:10;;;;;;;4.72;1.40;;;13.60;82.90;;;;;;5070631;28;20135;-68
2021/10/03 11:11:39;;;;;;;5.28;1.60;;;13.50;81.30;;;;;;5036548;28;20074;-68
2021/10/03 11:14:06;;;;;;;11.65;1.90;;;13.60;81.50;;;;;;5068880;28;20369;-68
2021/10/03 11:16:34;;;;;;;6.45;1.60;;;13.60;81.10;;;;;;5070585;28;20123;-68
2021/10/03 11:19:21;;;;;;;8.90;2.00;;;13.60;80.70;;;;;;5070466;28;20127;-68
2021/10/03 11:21:53;;;;;;;5.70;2.00;;;13.60;80.30;;;;;;5052374;28;20049;-68
2021/10/03 11:24:33;;;;;;;4.43;1.13;;;13.60;80.80;;;;;;5052288;28;20146;-67
2021/10/03 11:27:00;;;;;;;4.63;1.58;;;13.70;80.80;;;;;;5070774;28;20070;-67
2021/10/03 11:29:40;;;;;;;6.53;2.00;;;13.70;77.90;;;;;;5070309;28;20049;-67
2021/10/03 11:32:15;;;;;;;7.07;1.40;;;13.70;79.20;;;;;;5070592;28;20080;-67
2021/10/03 11:34:51;;;;;;;6.22;1.38;;;13.70;77.40;;;;;;5070116;28;20051;-67
2021/10/03 11:37:28;;;;;;;3.92;1.48;;;13.80;80.00;;;;;;5032274;28;20049;-66
2021/10/03 11:40:00;;;;;;;4.97;1.25;;;13.80;77.80;;;;;;5032431;28;20057;-67
2021/10/03 11:42:28;;;;;;;3.97;1.30;;;13.90;77.90;;;;;;5064651;28;20048;-67
2021/10/03 11:45:14;;;;;;;6.28;1.92;;;14.00;77.50;;;;;;5069926;28;20082;-67
2021/10/03 11:47:56;;;;;;;4.88;1.33;;;14.00;79.10;;;;;;5070567;28;20045;-67
2021/10/03 11:50:42;;;;;;;5.78;1.45;;;14.00;77.40;;;;;;5069021;28;20072;-67
2021/10/03 11:53:15;;;;;;;4.97;1.10;;;13.90;79.10;;;;;;5035677;28;20143;-67
2021/10/03 11:55:42;;;;;;;4.72;1.33;;;14.00;78.90;;;;;;5052956;28;20082;-67
2021/10/03 11:58:11;;;;;;;4.82;1.63;;;14.10;77.60;;;;;;5035458;28;20049;-67
2021/10/03 12:00:58;;;;;;;4.65;1.30;;;14.20;78.30;;;;;;5043665;28;20172;-68
2021/10/03 12:03:29;;;;;;;4.13;1.35;;;14.30;80.60;;;;;;5072460;28;20468;-67
2021/10/03 12:06:00;;;;;;;4.57;1.15;;;14.40;77.50;;;;;;5073045;28;20062;-67
2021/10/03 12:08:27;;;;;;;3.55;1.20;;;14.50;77.50;;;;;;5055895;28;20044;-71
2021/10/03 12:10:59;;;;;;;4.90;1.67;;;14.60;76.60;;;;;;5055417;28;20138;-67
2021/10/03 12:13:33;;;;;;;5.85;1.77;;;14.60;77.20;;;;;;5048698;28;20087;-68
2021/10/03 12:16:05;;;;;;;6.57;1.95;;;14.80;77.60;;;;;;5068516;28;20076;-67
2021/10/03 12:18:35;;;;;;;3.47;1.23;;;15.00;74.80;;;;;;5051136;28;20041;-67
2021/10/03 12:21:24;;;;;;;14.15;8.50;;;15.00;75.70;;;;;;5051859;28;20150;-68
2021/10/03 12:24:14;;;;;;;12.65;7.43;;;15.00;75.30;;;;;;5069683;28;20518;-68
2021/10/03 12:26:46;;;;;;;16.63;8.60;;;15.00;74.90;;;;;;5075854;28;20478;-68
2021/10/03 12:29:18;;;;;;;14.77;10.20;;;15.00;71.80;;;;;;5036192;28;20081;-65
2021/10/03 12:31:51;;;;;;;81.00;57.13;;;15.10;75.20;;;;;;5076563;28;20044;-72
2021/10/03 12:34:21;;;;;;;11.50;4.88;;;15.20;75.10;;;;;;5089953;28;20082;-68
2021/10/03 12:37:14;;;;;;;5.95;2.53;;;15.30;74.40;;;;;;5086335;28;20044;-69
2021/10/03 12:39:51;;;;;;;5.40;1.63;;;15.20;73.60;;;;;;5047699;28;20491;-68
2021/10/03 12:42:26;;;;;;;6.55;1.50;;;15.30;72.40;;;;;;5062972;28;20044;-68
2021/10/03 12:44:55;;;;;;;3.83;1.20;;;15.30;73.10;;;;;;5059836;28;20082;-69
2021/10/03 12:47:22;;;;;;;4.18;1.13;;;15.40;76.60;;;;;;5052356;28;20044;-67
2021/10/03 12:49:50;;;;;;;4.05;1.55;;;15.40;76.60;;;;;;5080249;28;20052;-66
2021/10/03 12:52:17;;;;;;;4.40;1.20;;;15.40;73.10;;;;;;5050578;28;20044;-66
2021/10/03 12:54:44;;;;;;;8.65;1.40;;;15.50;75.20;;;;;;5069458;28;20135;-66
2021/10/03 12:57:11;;;;;;;5.38;1.90;;;15.60;73.60;;;;;;5055275;28;20059;-66